createdAt,value
2022-11-14T00:02:27.670Z,1.95
2022-11-14T00:05:14.730Z,1.90
2022-11-14T00:08:01.866Z,1.60
2022-11-14T00:10:50.660Z,2.03
2022-11-14T00:13:37.584Z,2.00
2022-11-14T00:16:25.954Z,2.15
2022-11-14T00:19:13.414Z,1.83
2022-11-14T00:22:01.232Z,1.70
2022-11-14T00:24:48.841Z,1.80
2022-11-14T00:27:36.425Z,1.70
2022-11-14T00:30:23.440Z,1.50
2022-11-14T00:33:15.877Z,1.90
2022-11-14T00:36:06.641Z,1.40
2022-11-14T00:38:54.835Z,1.73
2022-11-14T00:41:42.450Z,1.80
2022-11-14T00:44:29.694Z,2.35
2022-11-14T00:47:16.891Z,1.67
2022-11-14T00:50:06.095Z,1.70
2022-11-14T00:52:52.900Z,1.77
2022-11-14T00:55:40.232Z,1.70
2022-11-14T00:58:27.540Z,1.70
2022-11-14T01:01:14.890Z,1.30
2022-11-14T01:04:02.002Z,1.40
2022-11-14T01:06:50.610Z,1.77
2022-11-14T01:09:38.049Z,1.80
2022-11-14T01:12:25.335Z,1.60
2022-11-14T01:15:12.364Z,1.52
2022-11-14T01:17:59.560Z,1.95
2022-11-14T01:20:48.352Z,1.67
2022-11-14T01:23:37.356Z,1.73
2022-11-14T01:26:24.368Z,1.80
2022-11-14T01:29:11.566Z,1.83
2022-11-14T01:31:58.723Z,1.45
2022-11-14T01:34:47.144Z,1.85
2022-11-14T01:37:34.257Z,1.70
2022-11-14T01:40:22.812Z,1.85
2022-11-14T01:43:24.011Z,1.80
2022-11-14T01:46:15.303Z,1.80
2022-11-14T01:49:06.254Z,1.90
2022-11-14T01:52:01.107Z,1.60
2022-11-14T01:54:51.195Z,1.75
2022-11-14T01:57:44.152Z,1.67
2022-11-14T02:00:31.151Z,1.83
2022-11-14T02:03:20.180Z,2.15
2022-11-14T02:06:10.402Z,1.70
2022-11-14T02:08:59.743Z,1.73
2022-11-14T02:11:47.393Z,2.17
2022-11-14T02:14:38.235Z,1.85
2022-11-14T02:17:30.912Z,2.15
2022-11-14T02:20:22.417Z,2.10
2022-11-14T02:23:10.295Z,2.10
2022-11-14T02:25:57.167Z,2.10
2022-11-14T02:28:44.390Z,1.73
2022-11-14T02:31:31.625Z,2.20
2022-11-14T02:34:20.201Z,2.30
2022-11-14T02:37:09.336Z,1.90
2022-11-14T02:39:56.502Z,2.10
2022-11-14T02:42:43.586Z,2.05
2022-11-14T02:45:30.700Z,1.65
2022-11-14T02:48:17.858Z,2.13
2022-11-14T02:51:05.000Z,1.85
2022-11-14T02:53:53.583Z,2.10
2022-11-14T02:56:40.615Z,1.90
2022-11-14T02:59:27.952Z,1.95
2022-11-14T03:02:15.132Z,1.95
2022-11-14T03:05:02.312Z,1.85
2022-11-14T03:07:49.600Z,2.08
2022-11-14T03:10:37.948Z,2.15
2022-11-14T03:13:30.065Z,1.88
2022-11-14T03:16:16.917Z,1.90
2022-11-14T03:19:04.474Z,2.08
2022-11-14T03:21:51.346Z,2.20
2022-11-14T03:24:38.510Z,1.77
2022-11-14T03:27:27.140Z,1.77
2022-11-14T03:30:15.530Z,1.90
2022-11-14T03:33:02.828Z,1.80
2022-11-14T03:35:50.635Z,2.00
2022-11-14T03:38:37.608Z,1.83
2022-11-14T03:41:24.828Z,2.13
2022-11-14T03:44:13.504Z,1.98
2022-11-14T03:47:00.577Z,1.80
2022-11-14T03:49:47.877Z,1.80
2022-11-14T03:52:35.036Z,1.80
2022-11-14T03:55:22.136Z,1.92
2022-11-14T03:58:09.256Z,1.63
2022-11-14T04:00:57.828Z,1.85
2022-11-14T04:03:44.877Z,1.90
2022-11-14T04:06:31.965Z,1.98
2022-11-14T04:09:19.222Z,1.90
2022-11-14T04:12:10.168Z,1.75
2022-11-14T04:15:01.326Z,1.88
2022-11-14T04:17:49.986Z,2.00
2022-11-14T04:20:37.056Z,2.00
2022-11-14T04:23:24.215Z,2.00
2022-11-14T04:26:11.532Z,1.52
2022-11-14T04:28:58.768Z,1.67
2022-11-14T04:31:45.960Z,1.92
2022-11-14T04:34:34.416Z,1.88
2022-11-14T04:37:21.510Z,1.80
2022-11-14T04:40:09.993Z,1.67
2022-11-14T04:42:56.907Z,1.75
2022-11-14T04:45:44.087Z,1.90
2022-11-14T04:48:31.461Z,2.05
2022-11-14T04:51:20.198Z,1.75
2022-11-14T04:54:07.934Z,1.70
2022-11-14T04:56:54.848Z,2.00
2022-11-14T04:59:41.776Z,2.00
2022-11-14T05:02:31.872Z,2.10
2022-11-14T05:05:19.030Z,1.65
2022-11-14T05:08:07.552Z,2.10
2022-11-14T05:10:54.445Z,2.10
2022-11-14T05:13:41.515Z,2.08
2022-11-14T05:16:28.894Z,1.90
2022-11-14T05:19:16.481Z,2.35
2022-11-14T05:22:03.509Z,2.10
2022-11-14T05:24:52.476Z,1.90
2022-11-14T05:27:39.672Z,2.10
2022-11-14T05:30:26.814Z,2.00
2022-11-14T05:33:14.294Z,2.30
2022-11-14T05:36:05.385Z,2.10
2022-11-14T05:38:52.631Z,2.30
2022-11-14T05:41:41.041Z,2.38
2022-11-14T05:44:28.282Z,2.20
2022-11-14T05:47:15.407Z,2.55
2022-11-14T05:50:02.786Z,2.60
2022-11-14T05:52:49.665Z,3.22
2022-11-14T05:55:36.771Z,2.67
2022-11-14T05:58:25.122Z,2.42
2022-11-14T06:01:14.398Z,2.70
2022-11-14T06:04:01.424Z,2.45
2022-11-14T06:06:48.693Z,2.50
2022-11-14T06:09:36.044Z,3.03
2022-11-14T06:12:23.209Z,2.78
2022-11-14T06:15:11.885Z,2.85
2022-11-14T06:17:58.917Z,3.05
2022-11-14T06:20:49.088Z,3.10
2022-11-14T06:23:35.905Z,3.38
2022-11-14T06:26:24.954Z,3.42
2022-11-14T06:29:11.982Z,3.33
2022-11-14T06:32:00.488Z,2.60
2022-11-14T06:34:47.609Z,2.67
2022-11-14T06:37:36.818Z,3.10
2022-11-14T06:40:24.059Z,3.42
2022-11-14T06:43:11.301Z,3.28
2022-11-14T06:45:58.084Z,3.10
2022-11-14T06:48:48.519Z,3.30
2022-11-14T06:51:35.342Z,3.17
2022-11-14T06:54:22.574Z,3.72
2022-11-14T06:57:09.522Z,3.47
2022-11-14T06:59:56.824Z,3.13
2022-11-14T07:02:46.905Z,3.85
2022-11-14T07:05:35.211Z,3.47
2022-11-14T07:08:22.304Z,3.65
2022-11-14T07:11:11.350Z,3.55
2022-11-14T07:14:01.315Z,3.30
2022-11-14T07:16:48.558Z,3.72
2022-11-14T07:19:35.634Z,3.78
2022-11-14T07:22:24.207Z,3.53
2022-11-14T07:25:11.291Z,4.30
2022-11-14T07:27:58.945Z,3.70
2022-11-14T07:30:45.880Z,3.50
2022-11-14T07:33:33.497Z,3.17
2022-11-14T07:36:20.595Z,3.67
2022-11-14T07:39:09.405Z,3.40
2022-11-14T07:41:56.538Z,3.88
2022-11-14T07:44:43.698Z,3.03
2022-11-14T07:47:30.855Z,4.07
2022-11-14T07:50:20.501Z,3.50
2022-11-14T07:53:08.744Z,3.63
2022-11-14T07:55:57.993Z,3.30
2022-11-14T07:58:44.930Z,3.70
2022-11-14T08:01:32.269Z,3.55
2022-11-14T08:04:19.485Z,3.70
2022-11-14T08:07:08.745Z,3.33
2022-11-14T08:09:56.352Z,4.68
2022-11-14T08:12:45.215Z,6.07
2022-11-14T08:15:33.813Z,7.88
2022-11-14T08:18:21.112Z,7.82
2022-11-14T08:21:08.772Z,8.05
2022-11-14T08:23:56.259Z,8.82
2022-11-14T08:26:43.194Z,6.32
2022-11-14T08:29:31.855Z,6.22
2022-11-14T08:32:22.164Z,6.22
2022-11-14T08:35:09.256Z,7.05
2022-11-14T08:37:56.587Z,7.35
2022-11-14T08:40:43.467Z,7.03
2022-11-14T08:43:30.820Z,6.13
2022-11-14T08:46:19.416Z,7.18
2022-11-14T08:49:06.964Z,6.45
2022-11-14T08:51:54.129Z,5.65
2022-11-14T08:54:41.300Z,5.15
2022-11-14T08:57:28.312Z,5.63
2022-11-14T09:00:16.538Z,5.65
2022-11-14T09:03:08.979Z,5.95
2022-11-14T09:05:56.560Z,5.97
2022-11-14T09:08:43.548Z,6.78
2022-11-14T09:11:30.709Z,5.70
2022-11-14T09:14:18.103Z,5.88
2022-11-14T09:17:06.209Z,5.63
2022-11-14T09:19:55.713Z,5.93
2022-11-14T09:22:43.033Z,6.05
2022-11-14T09:25:31.200Z,5.63
2022-11-14T09:28:18.478Z,6.10
2022-11-14T09:31:07.478Z,5.90
2022-11-14T09:33:54.628Z,6.05
2022-11-14T09:36:42.986Z,8.27
2022-11-14T09:39:29.848Z,6.90
2022-11-14T09:42:29.425Z,6.50
2022-11-14T09:45:17.728Z,6.07
2022-11-14T09:48:13.232Z,6.72
2022-11-14T09:51:08.391Z,6.43
2022-11-14T09:54:06.268Z,14.95
2022-11-14T09:56:53.572Z,8.40
2022-11-14T09:59:41.564Z,8.60
2022-11-14T10:02:44.647Z,6.72
2022-11-14T10:05:45.813Z,6.93
2022-11-14T10:08:57.525Z,7.78
2022-11-14T10:11:51.426Z,7.47
2022-11-14T10:15:10.459Z,6.82
2022-11-14T10:18:12.547Z,7.03
2022-11-14T10:21:10.827Z,7.22
2022-11-14T10:24:06.628Z,7.50
2022-11-14T10:27:02.124Z,7.15
2022-11-14T10:30:05.281Z,7.85
2022-11-14T10:33:10.820Z,15.80
2022-11-14T10:36:04.533Z,9.45
2022-11-14T10:38:56.115Z,6.28
2022-11-14T10:42:06.012Z,5.38
2022-11-14T10:45:01.800Z,5.55
2022-11-14T10:47:55.741Z,5.63
2022-11-14T10:50:49.882Z,5.15
2022-11-14T10:53:48.036Z,5.13
2022-11-14T10:56:35.413Z,5.63
2022-11-14T10:59:24.722Z,5.15
2022-11-14T11:02:12.944Z,5.43
2022-11-14T11:05:15.196Z,4.35
2022-11-14T11:08:42.521Z,3.97
2022-11-14T11:11:32.690Z,4.20
2022-11-14T11:14:20.660Z,3.20
2022-11-14T11:17:21.736Z,2.47
2022-11-14T11:20:27.169Z,2.22
2022-11-14T11:23:20.466Z,1.70
2022-11-14T11:26:09.533Z,1.95
2022-11-14T11:29:08.895Z,2.20
2022-11-14T11:31:57.924Z,1.70
2022-11-14T11:34:46.724Z,1.50
2022-11-14T11:37:40.156Z,1.65
2022-11-14T11:40:29.548Z,1.90
2022-11-14T11:43:38.258Z,1.50
2022-11-14T11:46:33.419Z,1.60
2022-11-14T11:49:29.183Z,1.73
2022-11-14T11:52:25.170Z,1.60
2022-11-14T11:55:17.944Z,1.58
2022-11-14T11:58:12.835Z,1.40
2022-11-14T12:01:00.051Z,1.67
2022-11-14T12:03:50.146Z,1.80
2022-11-14T12:06:44.838Z,1.52
2022-11-14T12:10:08.854Z,1.70
2022-11-14T12:13:07.721Z,1.80
2022-11-14T12:16:13.544Z,1.67
2022-11-14T12:19:30.715Z,2.10
2022-11-14T12:22:50.836Z,1.52
2022-11-14T12:26:08.628Z,1.80
2022-11-14T12:29:12.908Z,1.67
2022-11-14T12:32:06.366Z,1.70
2022-11-14T12:34:53.710Z,1.92
2022-11-14T12:37:52.686Z,1.85
2022-11-14T12:40:50.358Z,2.00
2022-11-14T12:43:42.572Z,2.10
2022-11-14T12:47:08.876Z,1.60
2022-11-14T12:50:35.096Z,1.67
2022-11-14T12:53:42.190Z,2.10
2022-11-14T12:57:09.820Z,2.00
2022-11-14T13:00:05.760Z,1.70
2022-11-14T13:03:24.819Z,1.67
2022-11-14T13:06:18.413Z,1.83
2022-11-14T13:09:33.715Z,2.13
2022-11-14T13:12:50.145Z,1.92
2022-11-14T13:16:08.145Z,2.22
2022-11-14T13:19:14.763Z,1.80
2022-11-14T13:22:34.312Z,2.30
2022-11-14T13:25:23.748Z,2.65
2022-11-14T13:28:45.407Z,2.50
2022-11-14T13:32:00.897Z,2.50
2022-11-14T13:34:53.153Z,1.98
2022-11-14T13:38:14.550Z,2.47
2022-11-14T13:41:17.183Z,2.55
2022-11-14T13:44:35.050Z,2.60
2022-11-14T13:47:43.177Z,2.42
2022-11-14T13:50:33.112Z,2.47
2022-11-14T13:53:24.730Z,2.28
2022-11-14T13:56:26.189Z,2.22
2022-11-14T13:59:46.408Z,2.70
2022-11-14T14:02:54.993Z,2.50
2022-11-14T14:06:11.288Z,2.28
2022-11-14T14:09:09.325Z,2.33
2022-11-14T14:12:32.813Z,2.40
2022-11-14T14:15:27.995Z,2.10
2022-11-14T14:18:26.734Z,2.00
2022-11-14T14:21:27.331Z,2.13
2022-11-14T14:24:27.688Z,1.90
2022-11-14T14:27:23.747Z,1.90
2022-11-14T14:30:13.494Z,2.05
2022-11-14T14:33:14.589Z,1.90
2022-11-14T14:36:04.469Z,2.30
2022-11-14T14:38:52.317Z,2.20
2022-11-14T14:41:39.378Z,2.08
2022-11-14T14:44:29.749Z,2.15
2022-11-14T14:47:18.877Z,2.20
2022-11-14T14:50:16.980Z,2.25
2022-11-14T14:53:05.523Z,2.40
2022-11-14T14:55:54.627Z,2.13
2022-11-14T14:58:41.585Z,2.45
2022-11-14T15:01:33.778Z,2.70
2022-11-14T15:04:22.964Z,2.28
2022-11-14T15:07:21.075Z,2.33
2022-11-14T15:10:22.050Z,2.28
2022-11-14T15:13:12.289Z,2.65
2022-11-14T15:15:59.435Z,2.80
2022-11-14T15:18:48.878Z,2.35
2022-11-14T15:21:35.879Z,2.70
2022-11-14T15:24:24.100Z,2.75
2022-11-14T15:27:16.284Z,2.92
2022-11-14T15:30:06.996Z,2.70
2022-11-14T15:32:56.934Z,2.75
2022-11-14T15:35:43.878Z,2.92
2022-11-14T15:38:46.665Z,2.30
2022-11-14T15:41:34.487Z,3.15
2022-11-14T15:44:33.399Z,2.72
2022-11-14T15:47:23.233Z,2.70
2022-11-14T15:50:26.627Z,2.45
2022-11-14T15:53:24.471Z,2.80
2022-11-14T15:56:14.069Z,2.30
2022-11-14T15:59:01.022Z,2.47
2022-11-14T16:01:52.899Z,2.88
2022-11-14T16:04:46.019Z,2.30
2022-11-14T16:07:34.634Z,2.80
2022-11-14T16:10:23.864Z,2.65
2022-11-14T16:13:11.487Z,2.60
2022-11-14T16:15:59.116Z,3.10
2022-11-14T16:18:47.690Z,2.70
2022-11-14T16:21:35.510Z,2.95
2022-11-14T16:24:33.492Z,2.97
2022-11-14T16:27:21.234Z,2.97
2022-11-14T16:30:09.468Z,3.00
2022-11-14T16:32:56.730Z,3.05
2022-11-14T16:35:45.718Z,3.30
2022-11-14T16:38:32.910Z,3.25
2022-11-14T16:41:20.681Z,3.00
2022-11-14T16:44:11.007Z,2.67
2022-11-14T16:46:58.221Z,3.70
2022-11-14T16:49:45.185Z,3.33
2022-11-14T16:52:33.707Z,3.30
2022-11-14T16:55:20.990Z,5.20
2022-11-14T16:58:08.087Z,4.30
2022-11-14T17:00:55.340Z,4.28
2022-11-14T17:03:42.832Z,3.67
2022-11-14T17:06:30.502Z,4.20
2022-11-14T17:09:18.653Z,4.18
2022-11-14T17:12:06.881Z,3.72
2022-11-14T17:14:54.490Z,3.67
2022-11-14T17:17:41.287Z,3.70
2022-11-14T17:20:28.340Z,3.60
2022-11-14T17:23:15.595Z,3.40
2022-11-14T17:26:05.152Z,3.90
2022-11-14T17:28:52.386Z,3.75
2022-11-14T17:31:43.244Z,3.65
2022-11-14T17:34:33.800Z,3.78
2022-11-14T17:37:20.756Z,3.85
2022-11-14T17:40:15.158Z,3.78
2022-11-14T17:43:04.375Z,3.80
2022-11-14T17:45:56.012Z,3.55
2022-11-14T17:48:42.863Z,4.00
2022-11-14T17:51:29.858Z,3.83
2022-11-14T17:54:20.332Z,3.95
2022-11-14T17:57:08.035Z,3.67
2022-11-14T17:59:56.698Z,4.18
2022-11-14T18:02:43.701Z,4.35
2022-11-14T18:05:31.184Z,3.95
2022-11-14T18:08:18.479Z,3.90
2022-11-14T18:11:07.745Z,3.85
2022-11-14T18:13:56.071Z,5.18
2022-11-14T18:17:11.131Z,4.35
2022-11-14T18:19:56.119Z,4.22
2022-11-14T18:24:55.984Z,4.50
2022-11-14T18:27:43.979Z,4.03
2022-11-14T18:30:46.535Z,5.68
2022-11-14T18:33:34.163Z,15.88
2022-11-14T18:36:21.678Z,11.82
2022-11-14T18:39:08.785Z,9.85
2022-11-14T18:41:59.727Z,9.68
2022-11-14T18:44:46.569Z,8.73
2022-11-14T18:47:33.447Z,7.25
2022-11-14T18:50:20.312Z,7.78
2022-11-14T18:53:07.195Z,9.20
2022-11-14T18:55:54.210Z,7.97
2022-11-14T18:58:43.420Z,7.60
2022-11-14T19:01:32.069Z,7.07
2022-11-14T19:04:19.609Z,7.72
2022-11-14T19:07:06.692Z,8.23
2022-11-14T19:09:53.800Z,7.30
2022-11-14T19:12:42.603Z,8.15
2022-11-14T19:15:32.338Z,9.27
2022-11-14T19:18:19.150Z,5.88
2022-11-14T19:21:06.465Z,7.07
2022-11-14T19:23:54.844Z,5.72
2022-11-14T19:26:41.887Z,5.63
2022-11-14T19:29:28.895Z,5.75
2022-11-14T19:32:17.244Z,5.40
2022-11-14T19:35:04.572Z,5.18
2022-11-14T19:37:51.720Z,5.45
2022-11-14T19:40:38.975Z,5.32
2022-11-14T19:43:26.841Z,5.30
2022-11-14T19:46:15.298Z,5.40
2022-11-14T19:49:03.873Z,5.20
2022-11-14T19:51:51.000Z,5.45
2022-11-14T19:54:38.095Z,5.60
2022-11-14T19:57:24.958Z,5.47
2022-11-14T20:00:12.590Z,5.68
2022-11-14T20:03:09.851Z,5.43
2022-11-14T20:06:05.691Z,5.07
2022-11-14T20:08:53.733Z,5.28
2022-11-14T20:11:40.586Z,5.95
2022-11-14T20:14:27.510Z,5.03
2022-11-14T20:17:14.800Z,4.97
2022-11-14T20:20:02.058Z,5.10
2022-11-14T20:22:50.555Z,5.00
2022-11-14T20:25:38.228Z,5.30
2022-11-14T20:28:25.329Z,5.18
2022-11-14T20:31:14.124Z,4.88
2022-11-14T20:34:01.280Z,4.95
2022-11-14T20:39:57.179Z,5.32
2022-11-14T20:47:17.287Z,5.90
2022-11-14T20:50:05.120Z,5.80
2022-11-14T20:52:52.221Z,5.55
2022-11-14T20:55:40.465Z,5.72
2022-11-14T20:58:27.797Z,5.72
2022-11-14T21:01:15.836Z,5.65
2022-11-14T21:04:02.940Z,5.50
2022-11-14T21:06:49.919Z,5.68
2022-11-14T21:09:37.052Z,5.45
2022-11-14T21:12:25.495Z,5.70
2022-11-14T21:15:12.911Z,5.63
2022-11-14T21:17:59.649Z,5.50
2022-11-14T21:20:47.358Z,6.25
2022-11-14T21:23:34.803Z,5.97
2022-11-14T21:26:23.592Z,6.10
2022-11-14T21:29:14.537Z,6.10
2022-11-14T21:32:01.550Z,4.93
2022-11-14T21:34:48.834Z,5.15
2022-11-14T21:37:35.983Z,5.50
2022-11-14T21:40:23.214Z,5.28
2022-11-14T21:43:10.499Z,5.63
2022-11-14T21:46:01.939Z,5.60
2022-11-14T21:48:50.154Z,4.72
2022-11-14T21:51:37.583Z,5.20
2022-11-14T21:54:24.893Z,5.38
2022-11-14T21:57:12.041Z,5.05
2022-11-14T21:59:59.161Z,4.75
2022-11-14T22:03:05.500Z,4.80
2022-11-14T22:05:56.739Z,4.93
2022-11-14T22:08:44.667Z,5.47
2022-11-14T22:11:31.915Z,4.80
2022-11-14T22:14:18.693Z,5.07
2022-11-14T22:17:05.543Z,4.95
2022-11-14T22:19:54.067Z,4.70
2022-11-14T22:22:41.195Z,4.93
2022-11-14T22:25:28.503Z,4.95
2022-11-14T22:28:15.319Z,5.13
2022-11-14T22:31:07.316Z,5.18
2022-11-14T22:33:55.159Z,5.05
2022-11-14T22:36:43.586Z,5.25
2022-11-14T22:39:30.682Z,5.22
2022-11-14T22:42:18.111Z,5.10
2022-11-14T22:45:06.200Z,5.07
2022-11-14T22:47:57.360Z,5.68
2022-11-14T22:50:48.266Z,4.70
2022-11-14T22:53:37.535Z,5.40
2022-11-14T22:56:26.591Z,5.90
2022-11-14T22:59:13.806Z,5.82
2022-11-14T23:02:01.650Z,5.15
2022-11-14T23:04:49.460Z,5.25
2022-11-14T23:07:40.000Z,5.10
2022-11-14T23:10:29.078Z,5.63
2022-11-14T23:13:16.864Z,5.03
2022-11-14T23:16:03.864Z,5.30
2022-11-14T23:18:52.026Z,5.25
2022-11-14T23:21:38.972Z,4.97
2022-11-14T23:24:26.068Z,4.93
2022-11-14T23:27:14.479Z,5.03
2022-11-14T23:30:01.606Z,5.30
2022-11-14T23:32:48.666Z,5.22
2022-11-14T23:35:35.501Z,4.93
2022-11-14T23:38:23.251Z,5.25
2022-11-14T23:41:15.484Z,5.25
2022-11-14T23:44:04.255Z,4.95
2022-11-14T23:46:51.265Z,4.93
2022-11-14T23:49:38.316Z,5.18
2022-11-14T23:52:25.354Z,4.80
2022-11-14T23:55:12.888Z,4.70
2022-11-14T23:58:00.253Z,4.95
